createdAt,value
2023-03-05T00:00:54.364Z,3.50
2023-03-05T00:03:21.139Z,3.50
2023-03-05T00:05:47.760Z,3.50
2023-03-05T00:08:14.350Z,3.50
2023-03-05T00:10:41.018Z,3.50
2023-03-05T00:13:08.064Z,3.50
2023-03-05T00:15:40.183Z,3.60
2023-03-05T00:18:06.848Z,3.60
2023-03-05T00:20:35.278Z,3.60
2023-03-05T00:23:02.028Z,3.60
2023-03-05T00:25:28.593Z,3.60
2023-03-05T00:27:55.166Z,3.60
2023-03-05T00:30:21.740Z,3.60
2023-03-05T00:32:48.319Z,3.60
2023-03-05T00:35:14.998Z,3.60
2023-03-05T00:37:41.813Z,3.60
2023-03-05T00:40:09.386Z,3.50
2023-03-05T00:42:38.617Z,3.50
2023-03-05T00:45:06.789Z,3.60
2023-03-05T00:47:33.727Z,3.50
2023-03-05T00:50:00.388Z,3.50
2023-03-05T00:52:27.366Z,3.40
2023-03-05T00:54:54.172Z,3.40
2023-03-05T00:57:21.072Z,3.40
2023-03-05T00:59:47.761Z,3.40
2023-03-05T01:02:14.494Z,3.40
2023-03-05T01:04:41.517Z,3.30
2023-03-05T01:07:08.110Z,3.30
2023-03-05T01:09:34.827Z,3.30
2023-03-05T01:12:01.525Z,3.30
2023-03-05T01:14:28.299Z,3.30
2023-03-05T01:16:54.974Z,3.30
2023-03-05T01:19:23.640Z,3.20
2023-03-05T01:21:50.254Z,3.20
2023-03-05T01:24:16.836Z,3.20
2023-03-05T01:26:43.480Z,3.20
2023-03-05T01:29:10.073Z,3.10
2023-03-05T01:31:36.706Z,3.10
2023-03-05T01:34:03.475Z,3.10
2023-03-05T01:36:30.225Z,3.10
2023-03-05T01:38:56.794Z,3.10
2023-03-05T01:41:23.481Z,3.10
2023-03-05T01:43:52.747Z,3.10
2023-03-05T01:46:39.064Z,3.10
2023-03-05T01:49:30.738Z,3.10
2023-03-05T01:52:03.199Z,3.10
2023-03-05T01:54:35.171Z,3.10
2023-03-05T01:57:07.857Z,3.20
2023-03-05T01:59:36.391Z,3.10
2023-03-05T02:02:03.930Z,3.20
2023-03-05T02:04:46.017Z,3.20
2023-03-05T02:07:13.647Z,3.10
2023-03-05T02:09:41.519Z,3.10
2023-03-05T02:12:10.218Z,3.10
2023-03-05T02:14:37.458Z,3.10
2023-03-05T02:17:04.190Z,3.10
2023-03-05T02:19:56.054Z,3.10
2023-03-05T02:22:24.682Z,3.10
2023-03-05T02:24:51.770Z,3.10
2023-03-05T02:27:22.848Z,3.10
2023-03-05T02:29:50.458Z,3.10
2023-03-05T02:32:17.108Z,3.10
2023-03-05T02:34:44.342Z,3.10
2023-03-05T02:37:11.049Z,3.10
2023-03-05T02:39:37.974Z,3.10
2023-03-05T02:42:04.714Z,3.00
2023-03-05T02:44:31.483Z,3.20
2023-03-05T02:46:58.058Z,3.00
2023-03-05T02:49:24.641Z,3.00
2023-03-05T02:51:51.276Z,3.00
2023-03-05T02:54:18.170Z,3.00
2023-03-05T02:56:44.997Z,2.90
2023-03-05T02:59:11.728Z,2.90
2023-03-05T03:01:38.618Z,2.90
2023-03-05T03:04:05.394Z,2.90
2023-03-05T03:06:32.069Z,2.90
2023-03-05T03:08:58.793Z,2.80
2023-03-05T03:11:25.486Z,2.80
2023-03-05T03:13:52.410Z,2.80
2023-03-05T03:16:19.069Z,2.80
2023-03-05T03:18:47.519Z,2.90
2023-03-05T03:21:24.086Z,2.80
2023-03-05T03:23:50.698Z,2.70
2023-03-05T03:26:17.666Z,2.70
2023-03-05T03:28:45.139Z,2.70
2023-03-05T03:31:11.965Z,2.80
2023-03-05T03:33:38.600Z,2.70
2023-03-05T03:36:06.174Z,2.70
2023-03-05T03:38:33.195Z,2.70
2023-03-05T03:40:59.757Z,2.70
2023-03-05T03:43:26.397Z,2.80
2023-03-05T03:45:53.065Z,2.70
2023-03-05T03:48:19.713Z,2.70
2023-03-05T03:50:46.361Z,2.70
2023-03-05T03:53:14.259Z,2.60
2023-03-05T03:55:47.967Z,2.60
2023-03-05T03:58:14.599Z,2.60
2023-03-05T04:00:41.653Z,2.60
2023-03-05T04:03:08.905Z,2.50
2023-03-05T04:05:35.533Z,2.50
2023-03-05T04:08:03.355Z,2.40
2023-03-05T04:10:30.064Z,2.30
2023-03-05T04:12:56.656Z,2.20
2023-03-05T04:15:23.513Z,2.20
2023-03-05T04:17:50.136Z,2.20
2023-03-05T04:20:17.205Z,2.10
2023-03-05T04:22:43.984Z,2.00
2023-03-05T04:25:10.837Z,1.80
2023-03-05T04:27:37.933Z,1.80
2023-03-05T04:30:05.240Z,1.80
2023-03-05T04:32:31.944Z,1.70
2023-03-05T04:34:58.693Z,1.70
2023-03-05T04:37:26.307Z,1.70
2023-03-05T04:39:53.485Z,1.70
2023-03-05T04:42:21.058Z,1.60
2023-03-05T04:44:49.045Z,1.60
2023-03-05T04:47:16.913Z,1.60
2023-03-05T04:49:44.088Z,1.60
2023-03-05T04:52:12.522Z,1.60
2023-03-05T04:54:39.564Z,1.60
2023-03-05T04:57:06.561Z,1.60
2023-03-05T04:59:33.330Z,1.60
2023-03-05T05:02:00.157Z,1.60
2023-03-05T05:04:26.798Z,1.60
2023-03-05T05:06:56.035Z,1.60
2023-03-05T05:09:23.370Z,1.50
2023-03-05T05:11:50.232Z,1.50
2023-03-05T05:14:18.009Z,1.40
2023-03-05T05:16:44.685Z,1.40
2023-03-05T05:19:11.534Z,1.40
2023-03-05T05:21:38.366Z,1.50
2023-03-05T05:24:05.441Z,1.50
2023-03-05T05:26:32.090Z,1.50
2023-03-05T05:28:58.703Z,1.50
2023-03-05T05:31:25.389Z,1.50
2023-03-05T05:33:52.425Z,1.50
2023-03-05T05:36:21.520Z,1.40
2023-03-05T05:38:48.458Z,1.30
2023-03-05T05:41:16.698Z,1.30
2023-03-05T05:43:43.635Z,1.30
2023-03-05T05:46:17.171Z,1.30
2023-03-05T05:48:44.796Z,1.30
2023-03-05T05:51:20.644Z,1.30
2023-03-05T05:53:47.841Z,1.30
2023-03-05T05:56:16.498Z,1.20
2023-03-05T05:58:44.473Z,1.30
2023-03-05T06:01:22.162Z,1.30
2023-03-05T06:03:48.838Z,1.30
2023-03-05T06:06:18.473Z,1.30
2023-03-05T06:08:45.826Z,1.30
2023-03-05T06:11:12.676Z,1.20
2023-03-05T06:13:39.638Z,1.10
2023-03-05T06:16:10.690Z,1.10
2023-03-05T06:18:37.328Z,1.00
2023-03-05T06:21:07.532Z,1.00
2023-03-05T06:23:35.195Z,1.00
2023-03-05T06:26:07.208Z,1.00
2023-03-05T06:28:34.988Z,1.10
2023-03-05T06:31:10.261Z,1.10
2023-03-05T06:33:37.713Z,1.10
2023-03-05T06:36:09.905Z,1.10
2023-03-05T06:38:37.248Z,1.10
2023-03-05T06:41:05.841Z,1.10
2023-03-05T06:43:37.177Z,1.10
2023-03-05T06:46:05.724Z,1.20
2023-03-05T06:48:32.462Z,1.20
2023-03-05T06:50:59.111Z,1.30
2023-03-05T06:53:26.324Z,1.30
2023-03-05T06:55:53.713Z,1.20
2023-03-05T06:58:21.184Z,1.20
2023-03-05T07:00:47.786Z,1.10
2023-03-05T07:03:14.494Z,1.20
2023-03-05T07:05:42.193Z,1.20
2023-03-05T07:08:09.279Z,1.20
2023-03-05T07:10:40.984Z,1.20
2023-03-05T07:13:08.651Z,1.30
2023-03-05T07:15:39.029Z,1.40
2023-03-05T07:18:06.022Z,1.30
2023-03-05T07:20:36.628Z,1.40
2023-03-05T07:23:04.178Z,1.40
2023-03-05T07:25:31.075Z,1.50
2023-03-05T07:27:57.829Z,1.50
2023-03-05T07:30:24.432Z,1.50
2023-03-05T07:32:51.170Z,1.50
2023-03-05T07:35:17.845Z,1.60
2023-03-05T07:37:44.530Z,1.60
2023-03-05T07:40:11.554Z,1.80
2023-03-05T07:42:38.188Z,1.80
2023-03-05T07:45:05.244Z,1.90
2023-03-05T07:47:32.009Z,2.00
2023-03-05T07:49:58.616Z,2.00
2023-03-05T07:52:25.368Z,2.10
2023-03-05T07:54:52.051Z,2.20
2023-03-05T07:57:18.645Z,2.20
2023-03-05T07:59:45.286Z,2.30
2023-03-05T08:02:13.415Z,2.30
2023-03-05T08:04:42.326Z,2.40
2023-03-05T08:07:09.326Z,2.40
2023-03-05T08:09:35.999Z,2.40
2023-03-05T08:12:02.638Z,2.50
2023-03-05T08:14:29.323Z,2.50
2023-03-05T08:16:55.987Z,2.60
2023-03-05T08:19:22.703Z,2.60
2023-03-05T08:21:49.278Z,2.70
2023-03-05T08:24:15.937Z,2.80
2023-03-05T08:26:42.626Z,2.90
2023-03-05T08:29:10.008Z,3.00
2023-03-05T08:31:37.973Z,3.10
2023-03-05T08:34:06.134Z,3.10
2023-03-05T08:36:33.035Z,3.10
2023-03-05T08:38:59.915Z,3.20
2023-03-05T08:41:26.782Z,3.30
2023-03-05T08:43:53.580Z,3.30
2023-03-05T08:46:20.354Z,3.40
2023-03-05T08:48:46.964Z,3.50
2023-03-05T08:51:19.840Z,3.50
2023-03-05T08:53:47.606Z,3.60
2023-03-05T08:56:15.606Z,3.70
2023-03-05T08:58:42.539Z,3.70
2023-03-05T09:01:09.590Z,3.80
2023-03-05T09:03:36.527Z,3.90
2023-03-05T09:06:06.634Z,3.90
2023-03-05T09:08:34.173Z,4.00
2023-03-05T09:11:06.071Z,4.00
2023-03-05T09:13:33.566Z,4.00
2023-03-05T09:16:02.919Z,4.10
2023-03-05T09:18:30.052Z,4.20
2023-03-05T09:20:57.310Z,4.20
2023-03-05T09:23:24.711Z,4.20
2023-03-05T09:25:51.445Z,4.30
2023-03-05T09:28:18.200Z,4.30
2023-03-05T09:30:44.887Z,4.30
2023-03-05T09:33:11.761Z,4.40
2023-03-05T09:35:38.737Z,4.40
2023-03-05T09:38:05.488Z,4.50
2023-03-05T09:40:44.817Z,4.60
2023-03-05T09:43:28.828Z,4.60
2023-03-05T09:46:14.590Z,4.70
2023-03-05T09:48:48.371Z,4.70
2023-03-05T09:51:36.298Z,4.80
2023-03-05T09:54:18.048Z,4.90
2023-03-05T09:56:53.237Z,4.90
2023-03-05T09:59:30.223Z,5.00
2023-03-05T10:02:01.229Z,5.00
2023-03-05T10:04:53.385Z,5.10
2023-03-05T10:07:36.585Z,5.10
2023-03-05T10:10:14.155Z,5.20
2023-03-05T10:12:44.020Z,5.30
2023-03-05T10:15:24.996Z,5.30
2023-03-05T10:18:19.781Z,5.30
2023-03-05T10:21:01.625Z,5.40
2023-03-05T10:23:46.024Z,5.40
2023-03-05T10:26:35.803Z,5.40
2023-03-05T10:29:08.306Z,5.50
2023-03-05T10:31:56.084Z,5.60
2023-03-05T10:34:25.369Z,5.70
2023-03-05T10:36:58.372Z,5.80
2023-03-05T10:39:39.775Z,5.80
2023-03-05T10:42:38.629Z,5.90
2023-03-05T10:45:18.695Z,5.90
2023-03-05T10:47:54.059Z,6.00
2023-03-05T10:50:27.725Z,6.00
2023-03-05T10:53:10.446Z,6.10
2023-03-05T10:55:37.326Z,6.10
2023-03-05T10:58:14.401Z,6.10
2023-03-05T11:00:57.718Z,6.10
2023-03-05T11:03:24.573Z,6.20
2023-03-05T11:05:59.254Z,6.20
2023-03-05T11:08:36.509Z,6.30
2023-03-05T11:11:10.213Z,6.30
2023-03-05T11:13:49.828Z,6.30
2023-03-05T11:16:21.204Z,6.30
2023-03-05T11:18:48.019Z,6.40
2023-03-05T11:21:27.823Z,6.40
2023-03-05T11:24:13.772Z,6.50
2023-03-05T11:26:48.717Z,6.50
2023-03-05T11:29:34.666Z,6.60
2023-03-05T11:32:25.255Z,6.50
2023-03-05T11:34:52.552Z,6.60
2023-03-05T11:37:37.319Z,6.60
2023-03-05T11:40:25.224Z,6.60
2023-03-05T11:42:56.885Z,6.60
2023-03-05T11:45:24.798Z,6.70
2023-03-05T11:47:55.921Z,6.70
2023-03-05T11:50:28.461Z,6.70
2023-03-05T11:53:00.108Z,6.70
2023-03-05T11:55:48.416Z,6.70
2023-03-05T11:58:37.392Z,6.70
2023-03-05T12:01:14.146Z,6.80
2023-03-05T12:03:41.154Z,6.90
2023-03-05T12:06:22.703Z,6.90
2023-03-05T12:08:54.368Z,6.80
2023-03-05T12:11:26.221Z,6.80
2023-03-05T12:13:57.656Z,6.90
2023-03-05T12:16:31.289Z,6.90
2023-03-05T12:19:08.827Z,6.90
2023-03-05T12:21:41.189Z,7.00
2023-03-05T12:24:28.300Z,7.00
2023-03-05T12:27:04.151Z,7.00
2023-03-05T12:29:30.923Z,6.90
2023-03-05T12:32:01.563Z,7.00
2023-03-05T12:34:40.501Z,7.10
2023-03-05T12:37:20.143Z,7.10
2023-03-05T12:39:52.839Z,7.10
2023-03-05T12:42:28.627Z,7.10
2023-03-05T12:45:14.595Z,7.20
2023-03-05T12:48:11.822Z,7.30
2023-03-05T12:50:38.446Z,7.40
2023-03-05T12:53:16.874Z,7.30
2023-03-05T12:55:55.618Z,7.40
2023-03-05T12:58:43.985Z,7.30
2023-03-05T13:01:34.020Z,7.30
2023-03-05T13:04:10.480Z,7.40
2023-03-05T13:06:38.757Z,7.40
2023-03-05T13:09:16.529Z,7.40
2023-03-05T13:11:47.251Z,7.40
2023-03-05T13:14:40.977Z,7.50
2023-03-05T13:17:35.385Z,7.50
2023-03-05T13:20:23.395Z,7.60
2023-03-05T13:23:20.966Z,7.60
2023-03-05T13:25:58.235Z,7.60
2023-03-05T13:28:25.834Z,7.60
2023-03-05T13:30:58.708Z,7.60
2023-03-05T13:33:29.233Z,7.70
2023-03-05T13:35:56.464Z,7.80
2023-03-05T13:38:28.149Z,7.70
2023-03-05T13:41:04.110Z,7.80
2023-03-05T13:43:31.018Z,7.80
2023-03-05T13:45:58.550Z,7.90
2023-03-05T13:48:27.282Z,7.90
2023-03-05T13:50:57.002Z,7.90
2023-03-05T13:53:31.682Z,7.90
2023-03-05T13:56:01.861Z,7.90
2023-03-05T13:58:53.650Z,7.90
2023-03-05T14:01:32.477Z,7.90
2023-03-05T14:04:07.528Z,8.00
2023-03-05T14:06:40.985Z,8.00
2023-03-05T14:09:20.392Z,8.00
2023-03-05T14:12:06.853Z,8.90
2023-03-05T14:14:38.257Z,9.80
2023-03-05T14:17:27.071Z,9.30
2023-03-05T14:20:19.645Z,9.10
2023-03-05T14:22:50.778Z,9.00
2023-03-05T14:25:39.479Z,8.80
2023-03-05T14:28:18.337Z,8.80
2023-03-05T14:30:49.372Z,8.70
2023-03-05T14:33:28.345Z,8.60
2023-03-05T14:35:57.599Z,8.60
2023-03-05T14:38:28.308Z,8.60
2023-03-05T14:40:55.215Z,8.60
2023-03-05T14:43:21.911Z,8.50
2023-03-05T14:45:48.576Z,8.50
2023-03-05T14:48:18.771Z,8.40
2023-03-05T14:50:56.899Z,8.40
2023-03-05T14:53:33.032Z,8.40
2023-03-05T14:55:59.833Z,8.40
2023-03-05T14:58:32.192Z,8.40
2023-03-05T15:00:59.187Z,8.40
2023-03-05T15:03:27.819Z,8.40
2023-03-05T15:05:57.534Z,8.40
2023-03-05T15:08:28.115Z,8.30
2023-03-05T15:10:55.521Z,8.40
2023-03-05T15:13:22.443Z,8.40
2023-03-05T15:15:50.201Z,9.30
2023-03-05T15:18:20.343Z,10.00
2023-03-05T15:20:48.828Z,9.60
2023-03-05T15:23:15.879Z,9.30
2023-03-05T15:25:42.920Z,9.10
2023-03-05T15:28:09.557Z,9.00
2023-03-05T15:30:39.651Z,8.90
2023-03-05T15:33:09.649Z,8.80
2023-03-05T15:35:37.130Z,8.80
2023-03-05T15:38:04.353Z,8.70
2023-03-05T15:40:31.292Z,8.60
2023-03-05T15:42:59.694Z,8.60
2023-03-05T15:45:27.302Z,8.60
2023-03-05T15:47:54.424Z,8.60
2023-03-05T15:50:22.272Z,8.50
2023-03-05T15:52:49.624Z,8.50
2023-03-05T15:55:18.268Z,8.40
2023-03-05T15:57:48.555Z,8.40
2023-03-05T16:00:18.690Z,8.30
2023-03-05T16:02:45.379Z,8.30
2023-03-05T16:05:12.065Z,8.30
2023-03-05T16:07:41.987Z,8.20
2023-03-05T16:10:17.344Z,8.20
2023-03-05T16:12:45.649Z,8.20
2023-03-05T16:15:16.420Z,8.10
2023-03-05T16:17:45.369Z,8.10
2023-03-05T16:20:13.186Z,8.10
2023-03-05T16:22:40.289Z,8.20
2023-03-05T16:25:07.336Z,8.10
2023-03-05T16:27:34.676Z,8.10
2023-03-05T16:30:01.323Z,8.10
2023-03-05T16:32:28.106Z,8.10
2023-03-05T16:34:54.720Z,8.10
2023-03-05T16:37:26.397Z,8.00
2023-03-05T16:40:21.088Z,7.90
2023-03-05T16:42:47.743Z,7.90
2023-03-05T16:46:10.129Z,7.90
2023-03-05T16:48:37.158Z,7.80
2023-03-05T16:51:06.688Z,7.80
2023-03-05T16:53:33.514Z,7.70
2023-03-05T16:56:04.023Z,7.70
2023-03-05T16:58:31.907Z,7.70
2023-03-05T17:00:59.368Z,7.60
2023-03-05T17:03:26.290Z,7.60
2023-03-05T17:05:53.588Z,7.60
2023-03-05T17:08:20.770Z,7.50
2023-03-05T17:10:47.481Z,7.40
2023-03-05T17:13:14.131Z,7.40
2023-03-05T17:15:40.701Z,7.30
2023-03-05T17:18:08.001Z,7.20
2023-03-05T17:20:36.464Z,7.30
2023-03-05T17:23:03.227Z,7.20
2023-03-05T17:25:30.140Z,7.20
2023-03-05T17:27:56.722Z,7.10
2023-03-05T17:30:23.447Z,7.10
2023-03-05T17:32:53.932Z,7.00
2023-03-05T17:35:22.193Z,7.00
2023-03-05T17:37:49.787Z,7.00
2023-03-05T17:40:17.335Z,6.90
2023-03-05T17:42:43.959Z,6.90
2023-03-05T17:45:13.927Z,6.90
2023-03-05T17:47:40.660Z,6.80
2023-03-05T17:50:08.350Z,6.80
2023-03-05T17:52:39.265Z,6.80
2023-03-05T17:55:09.898Z,6.80
2023-03-05T17:57:41.601Z,6.70
2023-03-05T18:00:17.028Z,6.60
2023-03-05T18:02:44.164Z,6.30
2023-03-05T18:05:11.385Z,6.20
2023-03-05T18:07:38.650Z,6.20
2023-03-05T18:10:06.764Z,6.20
2023-03-05T18:12:33.510Z,6.20
2023-03-05T18:15:00.206Z,6.10
2023-03-05T18:17:26.865Z,6.00
2023-03-05T18:19:53.638Z,5.90
2023-03-05T18:22:20.317Z,5.90
2023-03-05T18:24:47.012Z,5.90
2023-03-05T18:27:13.910Z,5.90
2023-03-05T18:29:40.529Z,5.90
2023-03-05T18:32:07.250Z,5.80
2023-03-05T18:34:33.918Z,5.80
2023-03-05T18:37:00.785Z,5.80
2023-03-05T18:39:33.335Z,5.80
2023-03-05T18:42:00.161Z,5.80
2023-03-05T18:44:27.012Z,5.70
2023-03-05T18:46:53.756Z,5.70
2023-03-05T18:49:20.508Z,5.70
2023-03-05T18:51:47.334Z,5.70
2023-03-05T18:54:13.957Z,5.60
2023-03-05T18:56:40.655Z,5.40
2023-03-05T18:59:09.557Z,5.30
2023-03-05T19:01:36.487Z,5.10
2023-03-05T19:04:04.055Z,5.00
2023-03-05T19:06:30.973Z,4.90
2023-03-05T19:09:53.430Z,4.90
2023-03-05T19:12:22.086Z,4.80
2023-03-05T19:14:48.694Z,4.90
2023-03-05T19:17:15.602Z,4.80
2023-03-05T19:19:45.089Z,4.80
2023-03-05T19:22:12.002Z,4.80
2023-03-05T19:24:39.103Z,4.70
2023-03-05T19:27:11.051Z,4.70
2023-03-05T19:29:42.156Z,4.70
2023-03-05T19:32:12.803Z,4.60
2023-03-05T19:34:43.248Z,4.60
2023-03-05T19:37:10.345Z,4.50
2023-03-05T19:39:37.010Z,4.50
2023-03-05T19:42:04.385Z,4.40
2023-03-05T19:44:31.510Z,4.30
2023-03-05T19:46:58.177Z,4.20
2023-03-05T19:49:25.141Z,4.20
2023-03-05T19:51:52.212Z,4.10
2023-03-05T19:54:20.418Z,4.10
2023-03-05T19:56:48.362Z,4.00
2023-03-05T19:59:17.699Z,4.00
2023-03-05T20:01:48.773Z,4.00
2023-03-05T20:04:21.701Z,4.00
2023-03-05T20:06:48.817Z,4.00
2023-03-05T20:09:16.880Z,4.10
2023-03-05T20:11:43.832Z,4.00
2023-03-05T20:14:14.482Z,4.00
2023-03-05T20:16:43.074Z,4.00
2023-03-05T20:19:16.044Z,3.90
2023-03-05T20:21:43.376Z,3.90
2023-03-05T20:24:16.741Z,3.90
2023-03-05T20:26:45.931Z,3.80
2023-03-05T20:29:16.169Z,3.80
2023-03-05T20:31:44.714Z,3.80
2023-03-05T20:34:14.263Z,3.80
2023-03-05T20:36:41.708Z,3.80
2023-03-05T20:39:08.709Z,3.70
2023-03-05T20:41:37.683Z,3.70
2023-03-05T20:44:05.413Z,3.70
2023-03-05T20:46:35.848Z,3.60
2023-03-05T20:49:04.207Z,3.60
2023-03-05T20:51:36.116Z,3.60
2023-03-05T20:54:05.971Z,3.60
2023-03-05T20:56:34.746Z,3.60
2023-03-05T20:59:04.426Z,3.60
2023-03-05T21:01:33.092Z,3.60
2023-03-05T21:04:00.940Z,3.60
2023-03-05T21:06:29.884Z,3.60
2023-03-05T21:08:57.358Z,3.60
2023-03-05T21:11:24.236Z,3.50
2023-03-05T21:13:51.512Z,3.40
2023-03-05T21:16:22.186Z,3.40
2023-03-05T21:18:49.332Z,3.30
2023-03-05T21:21:15.935Z,3.30
2023-03-05T21:23:42.577Z,3.20
2023-03-05T21:26:09.269Z,3.20
2023-03-05T21:28:36.370Z,3.20
2023-03-05T21:31:09.690Z,3.20
2023-03-05T21:33:37.125Z,3.20
2023-03-05T21:36:05.008Z,3.20
2023-03-05T21:38:34.240Z,3.10
2023-03-05T21:41:01.816Z,3.10
2023-03-05T21:43:31.127Z,3.10
2023-03-05T21:45:59.657Z,3.10
2023-03-05T21:48:26.401Z,3.10
2023-03-05T21:50:54.713Z,3.00
2023-03-05T21:53:22.140Z,3.00
2023-03-05T21:56:24.992Z,2.90
2023-03-05T21:58:52.463Z,2.80
2023-03-05T22:01:20.999Z,2.80
2023-03-05T22:03:48.923Z,2.80
2023-03-05T22:06:17.266Z,2.70
2023-03-05T22:08:44.227Z,2.60
2023-03-05T22:11:13.433Z,2.60
2023-03-05T22:13:40.110Z,2.60
2023-03-05T22:16:11.331Z,2.60
2023-03-05T22:18:38.022Z,2.50
2023-03-05T22:21:07.384Z,2.60
2023-03-05T22:23:34.627Z,2.50
2023-03-05T22:26:04.618Z,2.40
2023-03-05T22:28:32.724Z,2.40
2023-03-05T22:30:59.744Z,2.40
2023-03-05T22:33:27.403Z,2.30
2023-03-05T22:35:54.360Z,2.30
2023-03-05T22:38:21.009Z,2.40
2023-03-05T22:40:49.571Z,2.20
2023-03-05T22:43:17.114Z,2.30
2023-03-05T22:45:44.138Z,2.20
2023-03-05T22:48:11.377Z,2.20
2023-03-05T22:50:39.429Z,2.10
2023-03-05T22:53:06.515Z,2.10
2023-03-05T22:55:33.146Z,2.10
2023-03-05T22:57:59.766Z,2.10
2023-03-05T23:00:29.089Z,2.10
2023-03-05T23:02:56.239Z,2.10
2023-03-05T23:05:22.859Z,2.00
2023-03-05T23:07:49.696Z,2.10
2023-03-05T23:10:25.602Z,2.10
2023-03-05T23:12:55.458Z,2.10
2023-03-05T23:15:28.942Z,2.10
2023-03-05T23:17:56.421Z,2.10
2023-03-05T23:20:29.827Z,2.10
2023-03-05T23:22:56.992Z,2.00
2023-03-05T23:25:27.266Z,2.10
2023-03-05T23:27:54.041Z,2.10
2023-03-05T23:30:22.872Z,2.00
2023-03-05T23:32:59.722Z,2.00
2023-03-05T23:35:37.998Z,1.90
2023-03-05T23:38:12.323Z,1.90
2023-03-05T23:40:48.048Z,1.90
2023-03-05T23:43:16.417Z,1.80
2023-03-05T23:45:44.455Z,1.90
2023-03-05T23:48:11.531Z,1.80
2023-03-05T23:50:40.438Z,1.80
2023-03-05T23:53:07.937Z,1.80
2023-03-05T23:55:39.525Z,1.70
2023-03-05T23:58:06.673Z,1.80
